Gulf — V2BB5 — position and weather

sailwx.info

Track history (hours):
 
Tides and Currents Weather Stations Pressure Air Temp Water Temp Dewpoint Dewpoint Depression Visibility Wind Speed Wind Dir Waves Ship Positions

Gulf

Last reported at 2014-Dec-21 15:33 UTC. Time now 2014-Dec-22 07:04 UTC.
Position N 37°51' E 023°20'.

Length 96 m; draft 3.5 m.

Type: Cargo ship. MMSI: 304320000.

Date/timePositionNaut miles runAvg speedWind from/ knotsBaromVisibWave heightAir tempDewpointWater temp
2014-Dec-21 15:33N 37°51' E 023°20'10 9.7
2014-Dec-21 14:33N 37°50' E 023°33'8 7.7
2014-Dec-21 13:34N 37°47' E 023°42'9 9.1
2014-Dec-21 12:33N 37°39' E 023°49'18 8.9
2014-Dec-21 10:32N 37°40' E 024°11'21 9.7
2014-Dec-21 08:25N 37°54' E 024°31'  
2014-Dec-14 12:33N 37°49' E 025°24'7 7.4
2014-Dec-14 11:34N 37°42' E 025°21'7 7.0
2014-Dec-14 10:34N 37°36' E 025°18'7 7.0
2014-Dec-14 09:33N 37°30' E 025°13'7 7.0
2014-Dec-14 08:33N 37°27' E 025°05'6 5.7
2014-Dec-14 07:34N 37°25' E 024°58'0 0.0
2014-Dec-14 06:33N 37°25' E 024°58'0 0.0
2014-Dec-14 05:33N 37°25' E 024°58'0 0.0
2014-Dec-14 04:33N 37°25' E 024°58'3 3.2
2014-Dec-14 03:33N 37°22' E 024°60'8 7.8
2014-Dec-14 02:33N 37°20' E 024°50'8 8.1
2014-Dec-14 01:33N 37°18' E 024°40'8 8.0
2014-Dec-14 00:33N 37°16' E 024°31'9 8.1
2014-Dec-13 23:25N 37°14' E 024°20'9 8.1
2014-Dec-13 22:17N 37°11' E 024°08'32 7.6
2014-Dec-13 18:05N 36°50' E 023°38'  
Track history (hours):
 
Tides and Currents Weather Stations Pressure Air Temp Water Temp Dewpoint Dewpoint Depression Visibility Wind Speed Wind Dir Waves Ship Positions

Gulf

Last reported at 2014-Dec-21 15:33 UTC. Time now 2014-Dec-22 07:04 UTC.
Position N 37°51' E 023°20'.

Length 96 m; draft 3.5 m.

Type: Cargo ship. MMSI: 304320000.

Date/timePositionNaut miles runAvg speedWind from/ knotsBaromVisibWave heightAir tempDewpointWater temp
2014-Dec-21 15:33N 37°51' E 023°20'10 9.7
2014-Dec-21 14:33N 37°50' E 023°33'8 7.7
2014-Dec-21 13:34N 37°47' E 023°42'9 9.1
2014-Dec-21 12:33N 37°39' E 023°49'18 8.9
2014-Dec-21 10:32N 37°40' E 024°11'21 9.7
2014-Dec-21 08:25N 37°54' E 024°31'  
2014-Dec-14 12:33N 37°49' E 025°24'7 7.4
2014-Dec-14 11:34N 37°42' E 025°21'7 7.0
2014-Dec-14 10:34N 37°36' E 025°18'7 7.0
2014-Dec-14 09:33N 37°30' E 025°13'7 7.0
2014-Dec-14 08:33N 37°27' E 025°05'6 5.7
2014-Dec-14 07:34N 37°25' E 024°58'0 0.0
2014-Dec-14 06:33N 37°25' E 024°58'0 0.0
2014-Dec-14 05:33N 37°25' E 024°58'0 0.0
2014-Dec-14 04:33N 37°25' E 024°58'3 3.2
2014-Dec-14 03:33N 37°22' E 024°60'8 7.8
2014-Dec-14 02:33N 37°20' E 024°50'8 8.1
2014-Dec-14 01:33N 37°18' E 024°40'8 8.0
2014-Dec-14 00:33N 37°16' E 024°31'9 8.1
2014-Dec-13 23:25N 37°14' E 024°20'9 8.1
2014-Dec-13 22:17N 37°11' E 024°08'32 7.6
2014-Dec-13 18:05N 36°50' E 023°38'  

Dump ship's entire track history